sensor_id;sensor_type;location;lat;lon;timestamp;pressure;altitude;pressure_sealevel;temperature;humidity
11487;BME280;10510;47.942;9.442;2023-04-01T00:00:30;93506.66;;;5.25;100.00
11487;BME280;10510;47.942;9.442;2023-04-01T00:02:31;93500.84;;;5.23;100.00
11487;BME280;10510;47.942;9.442;2023-04-01T00:04:31;93508.63;;;5.23;100.00
11487;BME280;10510;47.942;9.442;2023-04-01T00:06:32;93521.56;;;5.23;100.00
11487;BME280;10510;47.942;9.442;2023-04-01T00:08:32;93515.59;;;5.22;100.00
11487;BME280;10510;47.942;9.442;2023-04-01T00:10:33;93509.44;;;5.23;100.00
11487;BME280;10510;47.942;9.442;2023-04-01T00:12:33;93513.00;;;5.22;100.00
11487;BME280;10510;47.942;9.442;2023-04-01T00:14:33;93514.63;;;5.23;100.00
11487;BME280;10510;47.942;9.442;2023-04-01T00:16:34;93506.84;;;5.23;100.00
11487;BME280;10510;47.942;9.442;2023-04-01T00:18:35;93511.19;;;5.23;100.00
11487;BME280;10510;47.942;9.442;2023-04-01T00:20:35;93503.44;;;5.23;100.00
11487;BME280;10510;47.942;9.442;2023-04-01T00:22:36;93506.03;;;5.23;100.00
11487;BME280;10510;47.942;9.442;2023-04-01T00:24:36;93506.22;;;5.21;100.00
11487;BME280;10510;47.942;9.442;2023-04-01T00:26:36;93510.59;;;5.21;100.00
11487;BME280;10510;47.942;9.442;2023-04-01T00:28:36;93509.97;;;5.19;100.00
11487;BME280;10510;47.942;9.442;2023-04-01T00:30:37;93513.53;;;5.18;100.00
11487;BME280;10510;47.942;9.442;2023-04-01T00:32:38;93498.97;;;5.17;100.00
11487;BME280;10510;47.942;9.442;2023-04-01T00:34:38;93506.72;;;5.17;100.00
11487;BME280;10510;47.942;9.442;2023-04-01T00:36:39;93507.53;;;5.17;100.00
11487;BME280;10510;47.942;9.442;2023-04-01T00:38:40;93502.53;;;5.16;100.00
11487;BME280;10510;47.942;9.442;2023-04-01T00:40:44;93507.09;;;5.14;100.00
11487;BME280;10510;47.942;9.442;2023-04-01T00:42:45;93496.94;;;5.12;100.00
11487;BME280;10510;47.942;9.442;2023-04-01T00:44:50;93507.44;;;5.11;100.00
11487;BME280;10510;47.942;9.442;2023-04-01T00:46:51;93489.66;;;5.08;100.00
11487;BME280;10510;47.942;9.442;2023-04-01T00:48:54;93499.41;;;5.06;100.00
11487;BME280;10510;47.942;9.442;2023-04-01T00:51:00;93492.81;;;5.03;100.00
11487;BME280;10510;47.942;9.442;2023-04-01T00:53:02;93493.97;;;5.00;100.00
11487;BME280;10510;47.942;9.442;2023-04-01T00:55:04;93490.91;;;4.97;100.00
11487;BME280;10510;47.942;9.442;2023-04-01T00:57:11;93492.88;;;4.95;100.00
11487;BME280;10510;47.942;9.442;2023-04-01T00:59:22;93497.41;;;4.93;100.00
11487;BME280;10510;47.942;9.442;2023-04-01T01:01:24;93498.56;;;4.90;100.00
11487;BME280;10510;47.942;9.442;2023-04-01T01:03:25;93503.94;;;4.89;100.00
11487;BME280;10510;47.942;9.442;2023-04-01T01:08:17;93491.06;;;4.81;100.00
11487;BME280;10510;47.942;9.442;2023-04-01T01:10:24;93494.81;;;4.78;100.00
11487;BME280;10510;47.942;9.442;2023-04-01T01:15:08;93497.31;;;4.71;100.00
11487;BME280;10510;47.942;9.442;2023-04-01T01:26:44;93493.22;;;4.54;100.00
11487;BME280;10510;47.942;9.442;2023-04-01T01:31:17;93492.94;;;4.49;100.00
11487;BME280;10510;47.942;9.442;2023-04-01T01:33:35;93498.31;;;4.47;100.00
11487;BME280;10510;47.942;9.442;2023-04-01T01:35:51;93499.09;;;4.48;100.00
11487;BME280;10510;47.942;9.442;2023-04-01T01:37:56;93501.06;;;4.46;100.00
11487;BME280;10510;47.942;9.442;2023-04-01T01:40:06;93495.06;;;4.45;100.00
11487;BME280;10510;47.942;9.442;2023-04-01T01:42:09;93481.34;;;4.45;100.00
11487;BME280;10510;47.942;9.442;2023-04-01T01:44:12;93497.81;;;4.44;100.00
11487;BME280;10510;47.942;9.442;2023-04-01T01:46:22;93494.28;;;4.45;100.00
11487;BME280;10510;47.942;9.442;2023-04-01T01:48:26;93488.31;;;4.44;100.00
11487;BME280;10510;47.942;9.442;2023-04-01T01:50:28;93490.06;;;4.44;100.00
11487;BME280;10510;47.942;9.442;2023-04-01T01:52:29;93492.66;;;4.44;100.00
11487;BME280;10510;47.942;9.442;2023-04-01T01:54:29;93482.50;;;4.42;100.00
11487;BME280;10510;47.942;9.442;2023-04-01T01:56:30;93476.50;;;4.42;100.00
11487;BME280;10510;47.942;9.442;2023-04-01T02:00:43;93478.31;;;4.41;100.00
11487;BME280;10510;47.942;9.442;2023-04-01T02:02:47;93473.13;;;4.41;100.00
11487;BME280;10510;47.942;9.442;2023-04-01T02:04:49;93477.47;;;4.41;100.00
11487;BME280;10510;47.942;9.442;2023-04-01T02:06:54;93470.69;;;4.40;100.00
11487;BME280;10510;47.942;9.442;2023-04-01T02:11:01;93468.28;;;4.38;100.00
11487;BME280;10510;47.942;9.442;2023-04-01T02:13:07;93467.47;;;4.38;100.00
11487;BME280;10510;47.942;9.442;2023-04-01T02:15:12;93469.25;;;4.37;100.00
11487;BME280;10510;47.942;9.442;2023-04-01T02:17:19;93464.09;;;4.37;100.00
11487;BME280;10510;47.942;9.442;2023-04-01T02:19:22;93465.88;;;4.37;100.00
11487;BME280;10510;47.942;9.442;2023-04-01T02:21:28;93455.19;;;4.40;100.00
11487;BME280;10510;47.942;9.442;2023-04-01T02:23:32;93457.59;;;4.41;100.00
11487;BME280;10510;47.942;9.442;2023-04-01T02:25:35;93463.38;;;4.43;100.00
11487;BME280;10510;47.942;9.442;2023-04-01T02:27:37;93451.09;;;4.45;100.00
11487;BME280;10510;47.942;9.442;2023-04-01T02:29:38;93456.28;;;4.45;100.00
11487;BME280;10510;47.942;9.442;2023-04-01T02:31:39;93465.28;;;4.49;100.00
11487;BME280;10510;47.942;9.442;2023-04-01T02:33:40;93458.16;;;4.51;100.00
11487;BME280;10510;47.942;9.442;2023-04-01T02:35:41;93469.16;;;4.53;100.00
11487;BME280;10510;47.942;9.442;2023-04-01T02:37:42;93469.75;;;4.55;100.00
11487;BME280;10510;47.942;9.442;2023-04-01T02:39:43;93466.00;;;4.58;100.00
11487;BME280;10510;47.942;9.442;2023-04-01T02:41:44;93465.22;;;4.58;100.00
11487;BME280;10510;47.942;9.442;2023-04-01T02:43:45;93463.44;;;4.58;100.00
11487;BME280;10510;47.942;9.442;2023-04-01T02:45:45;93459.06;;;4.59;100.00
11487;BME280;10510;47.942;9.442;2023-04-01T02:47:45;93465.06;;;4.59;100.00
11487;BME280;10510;47.942;9.442;2023-04-01T02:49:46;93460.69;;;4.60;100.00
11487;BME280;10510;47.942;9.442;2023-04-01T02:51:46;93464.22;;;4.59;100.00
11487;BME280;10510;47.942;9.442;2023-04-01T02:53:46;93458.25;;;4.58;100.00
11487;BME280;10510;47.942;9.442;2023-04-01T02:55:46;93459.88;;;4.59;100.00
11487;BME280;10510;47.942;9.442;2023-04-01T02:57:49;93453.88;;;4.59;100.00
11487;BME280;10510;47.942;9.442;2023-04-01T02:59:50;93459.06;;;4.59;100.00
11487;BME280;10510;47.942;9.442;2023-04-01T03:01:50;93459.06;;;4.59;100.00
11487;BME280;10510;47.942;9.442;2023-04-01T03:03:50;93461.63;;;4.59;100.00
11487;BME280;10510;47.942;9.442;2023-04-01T03:05:50;93457.28;;;4.59;100.00
11487;BME280;10510;47.942;9.442;2023-04-01T03:07:51;93455.50;;;4.60;100.00
11487;BME280;10510;47.942;9.442;2023-04-01T03:09:51;93458.91;;;4.60;100.00
11487;BME280;10510;47.942;9.442;2023-04-01T03:11:51;93470.84;;;4.61;100.00
11487;BME280;10510;47.942;9.442;2023-04-01T03:13:52;93462.13;;;4.62;100.00
11487;BME280;10510;47.942;9.442;2023-04-01T03:15:53;93464.72;;;4.62;100.00
11487;BME280;10510;47.942;9.442;2023-04-01T03:17:53;93475.84;;;4.63;100.00
11487;BME280;10510;47.942;9.442;2023-04-01T03:19:54;93464.06;;;4.60;100.00
11487;BME280;10510;47.942;9.442;2023-04-01T03:21:54;93473.63;;;4.60;100.00
11487;BME280;10510;47.942;9.442;2023-04-01T03:23:55;93460.69;;;4.60;100.00
11487;BME280;10510;47.942;9.442;2023-04-01T03:25:55;93458.25;;;4.58;100.00
11487;BME280;10510;47.942;9.442;2023-04-01T03:27:56;93465.06;;;4.59;100.00
11487;BME280;10510;47.942;9.442;2023-04-01T03:29:56;93465.84;;;4.60;100.00
11487;BME280;10510;47.942;9.442;2023-04-01T03:31:56;93475.22;;;4.61;100.00
11487;BME280;10510;47.942;9.442;2023-04-01T03:33:57;93475.06;;;4.62;100.00
11487;BME280;10510;47.942;9.442;2023-04-01T03:35:58;93473.63;;;4.60;100.00
11487;BME280;10510;47.942;9.442;2023-04-01T03:37:58;93477.00;;;4.60;100.00
11487;BME280;10510;47.942;9.442;2023-04-01T03:39:58;93461.47;;;4.60;100.00
11487;BME280;10510;47.942;9.442;2023-04-01T03:41:59;93473.63;;;4.60;100.00
11487;BME280;10510;47.942;9.442;2023-04-01T03:43:59;93477.81;;;4.61;100.00
11487;BME280;10510;47.942;9.442;2023-04-01T03:46:00;93469.06;;;4.62;100.00
11487;BME280;10510;47.942;9.442;2023-04-01T03:48:00;93470.69;;;4.63;100.00
11487;BME280;10510;47.942;9.442;2023-04-01T03:50:00;93468.09;;;4.63;100.00
11487;BME280;10510;47.942;9.442;2023-04-01T03:52:01;93473.06;;;4.64;100.00
11487;BME280;10510;47.942;9.442;2023-04-01T03:54:01;93461.94;;;4.64;100.00
11487;BME280;10510;47.942;9.442;2023-04-01T03:56:06;93472.28;;;4.64;100.00
11487;BME280;10510;47.942;9.442;2023-04-01T03:58:07;93473.06;;;4.64;100.00
11487;BME280;10510;47.942;9.442;2023-04-01T04:00:07;93473.28;;;4.63;100.00
11487;BME280;10510;47.942;9.442;2023-04-01T04:02:08;93463.06;;;4.61;100.00
11487;BME280;10510;47.942;9.442;2023-04-01T04:04:11;93458.09;;;4.60;100.00
11487;BME280;10510;47.942;9.442;2023-04-01T04:06:13;93461.47;;;4.60;100.00
11487;BME280;10510;47.942;9.442;2023-04-01T04:08:13;93451.28;;;4.59;100.00
11487;BME280;10510;47.942;9.442;2023-04-01T04:10:14;93453.88;;;4.59;100.00
11487;BME280;10510;47.942;9.442;2023-04-01T04:12:14;93455.84;;;4.57;100.00
11487;BME280;10510;47.942;9.442;2023-04-01T04:14:15;93456.66;;;4.57;100.00
11487;BME280;10510;47.942;9.442;2023-04-01T04:16:16;93449.06;;;4.55;100.00
11487;BME280;10510;47.942;9.442;2023-04-01T04:18:17;93450.22;;;4.53;100.00
11487;BME280;10510;47.942;9.442;2023-04-01T04:20:17;93452.81;;;4.53;100.00
11487;BME280;10510;47.942;9.442;2023-04-01T04:22:18;93443.44;;;4.52;100.00
11487;BME280;10510;47.942;9.442;2023-04-01T04:24:18;93447.81;;;4.51;100.00
11487;BME280;10510;47.942;9.442;2023-04-01T04:26:18;93452.00;;;4.52;100.00
11487;BME280;10510;47.942;9.442;2023-04-01T04:28:18;93457.16;;;4.52;100.00
11487;BME280;10510;47.942;9.442;2023-04-01T04:30:19;93453.78;;;4.52;100.00
11487;BME280;10510;47.942;9.442;2023-04-01T04:32:19;93460.59;;;4.53;100.00
11487;BME280;10510;47.942;9.442;2023-04-01T04:34:19;93461.38;;;4.53;100.00
11487;BME280;10510;47.942;9.442;2023-04-01T04:36:22;93456.22;;;4.53;100.00
11487;BME280;10510;47.942;9.442;2023-04-01T04:38:22;93453.44;;;4.55;100.00
11487;BME280;10510;47.942;9.442;2023-04-01T04:40:22;93456.81;;;4.55;100.00
11487;BME280;10510;47.942;9.442;2023-04-01T04:42:23;93460.22;;;4.56;100.00
11487;BME280;10510;47.942;9.442;2023-04-01T04:44:23;93461.03;;;4.57;100.00
11487;BME280;10510;47.942;9.442;2023-04-01T04:46:24;93460.84;;;4.58;100.00
11487;BME280;10510;47.942;9.442;2023-04-01T04:48:24;93466.00;;;4.58;100.00
11487;BME280;10510;47.942;9.442;2023-04-01T04:50:25;93465.06;;;4.59;100.00
11487;BME280;10510;47.942;9.442;2023-04-01T04:52:25;93466.81;;;4.59;100.00
11487;BME280;10510;47.942;9.442;2023-04-01T04:54:25;93464.22;;;4.59;100.00
11487;BME280;10510;47.942;9.442;2023-04-01T04:56:26;93467.00;;;4.57;100.00
11487;BME280;10510;47.942;9.442;2023-04-01T04:58:26;93467.00;;;4.57;100.00
11487;BME280;10510;47.942;9.442;2023-04-01T05:00:26;93465.22;;;4.58;100.00
11487;BME280;10510;47.942;9.442;2023-04-01T05:02:27;93472.97;;;4.58;100.00
11487;BME280;10510;47.942;9.442;2023-04-01T05:04:27;93463.78;;;4.55;100.00
11487;BME280;10510;47.942;9.442;2023-04-01T05:06:27;93475.91;;;4.54;100.00
11487;BME280;10510;47.942;9.442;2023-04-01T05:08:29;93468.97;;;4.55;100.00
11487;BME280;10510;47.942;9.442;2023-04-01T05:10:30;93474.13;;;4.55;100.00
11487;BME280;10510;47.942;9.442;2023-04-01T05:12:31;93470.94;;;4.53;100.00
11487;BME280;10510;47.942;9.442;2023-04-01T05:14:35;93463.34;;;4.51;100.00
11487;BME280;10510;47.942;9.442;2023-04-01T05:16:36;93471.09;;;4.51;100.00
11487;BME280;10510;47.942;9.442;2023-04-01T05:18:36;93474.47;;;4.52;100.00
11487;BME280;10510;47.942;9.442;2023-04-01T05:20:36;93484.03;;;4.51;100.00
11487;BME280;10510;47.942;9.442;2023-04-01T05:22:36;93474.66;;;4.50;100.00
11487;BME280;10510;47.942;9.442;2023-04-01T05:24:37;93473.84;;;4.50;100.00
11487;BME280;10510;47.942;9.442;2023-04-01T05:26:37;93478.22;;;4.49;100.00
11487;BME280;10510;47.942;9.442;2023-04-01T05:28:38;93471.44;;;4.48;100.00
11487;BME280;10510;47.942;9.442;2023-04-01T05:30:43;93474.19;;;4.47;100.00
11487;BME280;10510;47.942;9.442;2023-04-01T05:32:43;93473.38;;;4.46;100.00
11487;BME280;10510;47.942;9.442;2023-04-01T05:34:43;93481.94;;;4.47;100.00
11487;BME280;10510;47.942;9.442;2023-04-01T05:36:44;93475.19;;;4.46;100.00
11487;BME280;10510;47.942;9.442;2023-04-01T05:38:44;93474.19;;;4.47;100.00
11487;BME280;10510;47.942;9.442;2023-04-01T05:40:48;93470.00;;;4.46;100.00
11487;BME280;10510;47.942;9.442;2023-04-01T05:42:48;93480.19;;;4.47;100.00
11487;BME280;10510;47.942;9.442;2023-04-01T05:44:48;93470.44;;;4.49;100.00
11487;BME280;10510;47.942;9.442;2023-04-01T05:46:48;93472.88;;;4.51;100.00
11487;BME280;10510;47.942;9.442;2023-04-01T05:48:49;93474.66;;;4.50;100.00
11487;BME280;10510;47.942;9.442;2023-04-01T05:50:49;93477.88;;;4.52;100.00
11487;BME280;10510;47.942;9.442;2023-04-01T05:52:50;93468.50;;;4.51;100.00
11487;BME280;10510;47.942;9.442;2023-04-01T05:54:50;93477.88;;;4.52;100.00
11487;BME280;10510;47.942;9.442;2023-04-01T05:56:51;93473.69;;;4.51;100.00
11487;BME280;10510;47.942;9.442;2023-04-01T05:58:53;93464.94;;;4.52;100.00
11487;BME280;10510;47.942;9.442;2023-04-01T06:01:03;93470.94;;;4.53;100.00
11487;BME280;10510;47.942;9.442;2023-04-01T06:03:04;93476.72;;;4.55;100.00
11487;BME280;10510;47.942;9.442;2023-04-01T06:05:14;93475.13;;;4.54;100.00
11487;BME280;10510;47.942;9.442;2023-04-01T06:07:17;93480.09;;;4.55;100.00
11487;BME280;10510;47.942;9.442;2023-04-01T06:09:27;93470.59;;;4.56;100.00
11487;BME280;10510;47.942;9.442;2023-04-01T06:21:06;93488.44;;;4.66;100.00
11487;BME280;10510;47.942;9.442;2023-04-01T06:23:18;93478.72;;;4.68;100.00
11487;BME280;10510;47.942;9.442;2023-04-01T06:25:44;93477.09;;;4.67;100.00
11487;BME280;10510;47.942;9.442;2023-04-01T06:30:37;93477.75;;;4.69;100.00
11487;BME280;10510;47.942;9.442;2023-04-01T06:32:56;93473.22;;;4.71;100.00
11487;BME280;10510;47.942;9.442;2023-04-01T06:37:34;93468.47;;;4.74;100.00
11487;BME280;10510;47.942;9.442;2023-04-01T06:39:44;93470.16;;;4.82;100.00
11487;BME280;10510;47.942;9.442;2023-04-01T06:46:35;93459.81;;;4.97;100.00
11487;BME280;10510;47.942;9.442;2023-04-01T06:53:23;93462.34;;;5.05;100.00
11487;BME280;10510;47.942;9.442;2023-04-01T06:55:50;93455.00;;;5.09;100.00
11487;BME280;10510;47.942;9.442;2023-04-01T06:57:55;93467.63;;;5.12;100.00
11487;BME280;10510;47.942;9.442;2023-04-01T06:59:56;93468.25;;;5.14;100.00
11487;BME280;10510;47.942;9.442;2023-04-01T07:02:11;93461.53;;;5.19;100.00
11487;BME280;10510;47.942;9.442;2023-04-01T07:04:23;93461.81;;;5.24;100.00
11487;BME280;10510;47.942;9.442;2023-04-01T07:06:30;93459.84;;;5.27;100.00
11487;BME280;10510;47.942;9.442;2023-04-01T07:08:35;93471.63;;;5.29;100.00
11487;BME280;10510;47.942;9.442;2023-04-01T07:12:50;93459.66;;;5.43;100.00
11487;BME280;10510;47.942;9.442;2023-04-01T07:14:53;93468.88;;;5.45;100.00
11487;BME280;10510;47.942;9.442;2023-04-01T07:17:00;93446.78;;;5.50;100.00
11487;BME280;10510;47.942;9.442;2023-04-01T07:19:18;93456.34;;;5.49;100.00
11487;BME280;10510;47.942;9.442;2023-04-01T07:21:28;93452.41;;;5.53;100.00
11487;BME280;10510;47.942;9.442;2023-04-01T07:23:33;93458.47;;;5.60;100.00
11487;BME280;10510;47.942;9.442;2023-04-01T07:25:42;93456.94;;;5.66;100.00
11487;BME280;10510;47.942;9.442;2023-04-01T07:27:44;93459.81;;;5.71;100.00
11487;BME280;10510;47.942;9.442;2023-04-01T07:29:45;93444.69;;;5.75;100.00
11487;BME280;10510;47.942;9.442;2023-04-01T07:34:11;93453.59;;;5.87;100.00
11487;BME280;10510;47.942;9.442;2023-04-01T07:36:45;93453.84;;;5.92;100.00
11487;BME280;10510;47.942;9.442;2023-04-01T07:39:02;93464.53;;;5.97;100.00
11487;BME280;10510;47.942;9.442;2023-04-01T07:41:33;93464.16;;;6.00;100.00
11487;BME280;10510;47.942;9.442;2023-04-01T07:50:35;93470.13;;;6.01;100.00
11487;BME280;10510;47.942;9.442;2023-04-01T07:52:53;93473.09;;;5.98;100.00
11487;BME280;10510;47.942;9.442;2023-04-01T07:55:10;93478.53;;;6.03;100.00
11487;BME280;10510;47.942;9.442;2023-04-01T08:01:30;93476.19;;;6.08;100.00
11487;BME280;10510;47.942;9.442;2023-04-01T08:06:00;93478.13;;;6.21;100.00
11487;BME280;10510;47.942;9.442;2023-04-01T08:08:18;93471.75;;;6.23;100.00
11487;BME280;10510;47.942;9.442;2023-04-01T08:10:25;93478.19;;;6.27;100.00
11487;BME280;10510;47.942;9.442;2023-04-01T08:15:03;93476.66;;;6.33;100.00
11487;BME280;10510;47.942;9.442;2023-04-01T08:17:19;93486.41;;;6.31;100.00
11487;BME280;10510;47.942;9.442;2023-04-01T08:19:25;93472.00;;;6.28;100.00
11487;BME280;10510;47.942;9.442;2023-04-01T08:21:43;93491.59;;;6.31;100.00
11487;BME280;10510;47.942;9.442;2023-04-01T08:23:47;93473.25;;;6.32;100.00
11487;BME280;10510;47.942;9.442;2023-04-01T08:25:53;93474.84;;;6.33;100.00
11487;BME280;10510;47.942;9.442;2023-04-01T08:28:29;93493.19;;;6.32;100.00
11487;BME280;10510;47.942;9.442;2023-04-01T08:35:45;93491.44;;;6.18;100.00
11487;BME280;10510;47.942;9.442;2023-04-01T08:37:48;93492.28;;;6.18;100.00
11487;BME280;10510;47.942;9.442;2023-04-01T08:39:55;93490.06;;;6.15;100.00
11487;BME280;10510;47.942;9.442;2023-04-01T08:42:12;93488.00;;;6.10;100.00
11487;BME280;10510;47.942;9.442;2023-04-01T08:44:36;93487.38;;;6.08;100.00
11487;BME280;10510;47.942;9.442;2023-04-01T08:46:48;93479.78;;;6.07;100.00
11487;BME280;10510;47.942;9.442;2023-04-01T08:51:51;93492.31;;;6.03;100.00
11487;BME280;10510;47.942;9.442;2023-04-01T08:58:37;93490.63;;;5.96;100.00
11487;BME280;10510;47.942;9.442;2023-04-01T09:08:30;93491.13;;;5.91;100.00
11487;BME280;10510;47.942;9.442;2023-04-01T09:10:44;93499.75;;;5.91;100.00
11487;BME280;10510;47.942;9.442;2023-04-01T09:22:06;93499.03;;;5.83;100.00
11487;BME280;10510;47.942;9.442;2023-04-01T09:30:45;93498.47;;;5.87;100.00
11487;BME280;10510;47.942;9.442;2023-04-01T09:32:56;93505.28;;;5.88;100.00
11487;BME280;10510;47.942;9.442;2023-04-01T09:37:41;93502.88;;;5.87;100.00
11487;BME280;10510;47.942;9.442;2023-04-01T09:39:35;93500.91;;;5.89;100.00
11487;BME280;10510;47.942;9.442;2023-04-01T09:41:47;93509.66;;;5.88;100.00
11487;BME280;10510;47.942;9.442;2023-04-01T10:01:01;93521.28;;;5.92;100.00
11487;BME280;10510;47.942;9.442;2023-04-01T10:22:49;93530.59;;;6.01;100.00
11487;BME280;10510;47.942;9.442;2023-04-01T10:24:58;93522.38;;;5.98;100.00
11487;BME280;10510;47.942;9.442;2023-04-01T10:27:13;93525.94;;;5.97;100.00
11487;BME280;10510;47.942;9.442;2023-04-01T10:38:19;93517.31;;;6.11;100.00
11487;BME280;10510;47.942;9.442;2023-04-01T10:55:48;93512.72;;;6.28;100.00
11487;BME280;10510;47.942;9.442;2023-04-01T10:57:58;93517.13;;;6.27;100.00
11487;BME280;10510;47.942;9.442;2023-04-01T11:00:13;93517.38;;;6.32;100.00
11487;BME280;10510;47.942;9.442;2023-04-01T11:20:00;93511.06;;;6.63;100.00
11487;BME280;10510;47.942;9.442;2023-04-01T11:24:33;93508.22;;;6.58;100.00
11487;BME280;10510;47.942;9.442;2023-04-01T11:31:00;93502.59;;;6.54;100.00
11487;BME280;10510;47.942;9.442;2023-04-01T11:33:09;93500.19;;;6.53;100.00
11487;BME280;10510;47.942;9.442;2023-04-01T11:41:43;93516.75;;;6.52;100.00
11487;BME280;10510;47.942;9.442;2023-04-01T11:43:54;93509.97;;;6.51;100.00
11487;BME280;10510;47.942;9.442;2023-04-01T11:48:07;93500.53;;;6.50;100.00
11487;BME280;10510;47.942;9.442;2023-04-01T11:52:19;93504.19;;;6.55;100.00
11487;BME280;10510;47.942;9.442;2023-04-01T11:54:28;93501.06;;;6.60;100.00
11487;BME280;10510;47.942;9.442;2023-04-01T12:09:21;93509.72;;;7.23;100.00
11487;BME280;10510;47.942;9.442;2023-04-01T12:11:33;93501.84;;;7.38;100.00
11487;BME280;10510;47.942;9.442;2023-04-01T12:13:43;93514.50;;;7.48;100.00
11487;BME280;10510;47.942;9.442;2023-04-01T12:15:51;93512.69;;;7.48;100.00
11487;BME280;10510;47.942;9.442;2023-04-01T12:17:56;93524.69;;;7.49;100.00
11487;BME280;10510;47.942;9.442;2023-04-01T12:22:32;93523.00;;;7.70;100.00
11487;BME280;10510;47.942;9.442;2023-04-01T12:26:58;93516.22;;;7.76;100.00
11487;BME280;10510;47.942;9.442;2023-04-01T12:29:14;93533.84;;;7.73;100.00
11487;BME280;10510;47.942;9.442;2023-04-01T12:31:27;93532.81;;;7.68;100.00
11487;BME280;10510;47.942;9.442;2023-04-01T12:38:10;93525.34;;;7.58;100.00
11487;BME280;10510;47.942;9.442;2023-04-01T12:42:33;93538.88;;;7.47;100.00
11487;BME280;10510;47.942;9.442;2023-04-01T12:44:41;93535.47;;;7.46;100.00
11487;BME280;10510;47.942;9.442;2023-04-01T12:51:08;93541.13;;;7.50;100.00
11487;BME280;10510;47.942;9.442;2023-04-01T12:55:42;93547.53;;;7.54;100.00
11487;BME280;10510;47.942;9.442;2023-04-01T13:04:55;93541.81;;;7.72;100.00
11487;BME280;10510;47.942;9.442;2023-04-01T13:07:13;93538.28;;;7.80;100.00
11487;BME280;10510;47.942;9.442;2023-04-01T13:13:41;93543.59;;;8.06;100.00
11487;BME280;10510;47.942;9.442;2023-04-01T13:19:57;93545.75;;;7.96;100.00
11487;BME280;10510;47.942;9.442;2023-04-01T13:22:05;93551.53;;;7.91;100.00
11487;BME280;10510;47.942;9.442;2023-04-01T13:26:32;93556.69;;;7.85;100.00
11487;BME280;10510;47.942;9.442;2023-04-01T13:28:39;93545.63;;;7.76;100.00
11487;BME280;10510;47.942;9.442;2023-04-01T13:36:51;93544.56;;;7.64;100.00
11487;BME280;10510;47.942;9.442;2023-04-01T13:43:22;93545.81;;;7.68;100.00
11487;BME280;10510;47.942;9.442;2023-04-01T13:45:24;93547.19;;;7.64;100.00
11487;BME280;10510;47.942;9.442;2023-04-01T13:47:33;93546.38;;;7.63;100.00
11487;BME280;10510;47.942;9.442;2023-04-01T13:49:48;93538.81;;;7.68;100.00
11487;BME280;10510;47.942;9.442;2023-04-01T13:52:03;93550.63;;;7.71;100.00
11487;BME280;10510;47.942;9.442;2023-04-01T13:58:34;93548.06;;;7.78;100.00
11487;BME280;10510;47.942;9.442;2023-04-01T14:01:40;93545.84;;;7.74;100.00
11487;BME280;10510;47.942;9.442;2023-04-01T14:05:24;93552.38;;;7.64;100.00
11487;BME280;10510;47.942;9.442;2023-04-01T14:07:38;93562.53;;;7.59;100.00
11487;BME280;10510;47.942;9.442;2023-04-01T14:24:36;93557.66;;;7.42;100.00
11487;BME280;10510;47.942;9.442;2023-04-01T14:28:55;93558.66;;;7.41;100.00
11487;BME280;10510;47.942;9.442;2023-04-01T14:31:12;93560.81;;;7.38;100.00
11487;BME280;10510;47.942;9.442;2023-04-01T14:37:39;93555.59;;;7.38;100.00
11487;BME280;10510;47.942;9.442;2023-04-01T14:40:03;93557.78;;;7.34;100.00
11487;BME280;10510;47.942;9.442;2023-04-01T14:46:51;93554.34;;;7.27;100.00
11487;BME280;10510;47.942;9.442;2023-04-01T14:51:20;93546.72;;;7.25;100.00
11487;BME280;10510;47.942;9.442;2023-04-01T14:55:27;93549.94;;;7.27;100.00
11487;BME280;10510;47.942;9.442;2023-04-01T14:57:30;93551.53;;;7.28;100.00
11487;BME280;10510;47.942;9.442;2023-04-01T14:59:31;93560.97;;;7.30;100.00
11487;BME280;10510;47.942;9.442;2023-04-01T15:05:56;93559.34;;;7.28;100.00
11487;BME280;10510;47.942;9.442;2023-04-01T15:08:01;93556.31;;;7.25;100.00
11487;BME280;10510;47.942;9.442;2023-04-01T15:10:24;93551.94;;;7.25;100.00
11487;BME280;10510;47.942;9.442;2023-04-01T15:12:34;93565.94;;;7.24;100.00
11487;BME280;10510;47.942;9.442;2023-04-01T15:19:09;93569.16;;;7.26;100.00
11487;BME280;10510;47.942;9.442;2023-04-01T15:23:25;93560.34;;;7.27;100.00
11487;BME280;10510;47.942;9.442;2023-04-01T15:27:52;93560.97;;;7.30;100.00
11487;BME280;10510;47.942;9.442;2023-04-01T15:30:01;93565.16;;;7.31;100.00
11487;BME280;10510;47.942;9.442;2023-04-01T15:32:13;93565.97;;;7.31;100.00
11487;BME280;10510;47.942;9.442;2023-04-01T15:36:30;93571.59;;;7.35;100.00
11487;BME280;10510;47.942;9.442;2023-04-01T15:38:43;93568.97;;;7.35;100.00
11487;BME280;10510;47.942;9.442;2023-04-01T15:43:43;93578.41;;;7.36;100.00
11487;BME280;10510;47.942;9.442;2023-04-01T15:45:39;93585.38;;;7.35;100.00
11487;BME280;10510;47.942;9.442;2023-04-01T15:47:44;93581.19;;;7.34;100.00
11487;BME280;10510;47.942;9.442;2023-04-01T15:49:47;93585.38;;;7.35;100.00
11487;BME280;10510;47.942;9.442;2023-04-01T15:52:03;93584.41;;;7.36;100.00
11487;BME280;10510;47.942;9.442;2023-04-01T15:56:26;93585.03;;;7.38;100.00
11487;BME280;10510;47.942;9.442;2023-04-01T16:00:29;93583.59;;;7.36;100.00
11487;BME280;10510;47.942;9.442;2023-04-01T16:05:05;93583.78;;;7.34;100.00
11487;BME280;10510;47.942;9.442;2023-04-01T16:12:18;93585.59;;;7.34;100.00
11487;BME280;10510;47.942;9.442;2023-04-01T16:16:31;93586.38;;;7.34;100.00
11487;BME280;10510;47.942;9.442;2023-04-01T16:21:02;93587.94;;;7.28;100.00
11487;BME280;10510;47.942;9.442;2023-04-01T16:23:11;93591.72;;;7.26;100.00
11487;BME280;10510;47.942;9.442;2023-04-01T16:25:31;93597.28;;;7.23;100.00
11487;BME280;10510;47.942;9.442;2023-04-01T16:27:36;93597.47;;;7.21;100.00
11487;BME280;10510;47.942;9.442;2023-04-01T16:33:48;93600.25;;;7.20;100.00
11487;BME280;10510;47.942;9.442;2023-04-01T16:36:00;93598.03;;;7.17;100.00
11487;BME280;10510;47.942;9.442;2023-04-01T16:38:13;93587.22;;;7.13;100.00
11487;BME280;10510;47.942;9.442;2023-04-01T16:40:31;93589.03;;;7.13;100.00